Terminal Aerodrome Forecast
Issued by NWS

Home | Current Version | Previous Version | Text Only | Print | Product List | Glossary On
Versions: 1 2 3 4 5 6 7 8 9 10 11 12 13 14 15
000
FTUS43 KAPX 292300
TAFMBL
TAF
KMBL 292337Z 3000/3024 16008KT P6SM FEW020 BKN150
     FM300200 16008KT P6SM BKN140 WS020/19040KT
     FM300800 17007KT P6SM -SHRA BKN040 OVC100 WS020/20038KT
     FM301400 22008G16KT 6SM BR VCSH BKN018
     FM301900 23008KT 6SM -SHRA BR OVC015
      AMD LTD TO CLD VIS AND WIND=

USA.gov is the U.S. government's official web portal to all federal, state and local government web resources and services.